createdAt,value
2018-02-04T00:01:58.313Z,67.30
2018-02-04T00:04:25.959Z,67.40
2018-02-04T00:06:53.436Z,67.50
2018-02-04T00:09:21.671Z,67.90
2018-02-04T00:11:49.172Z,67.40
2018-02-04T00:14:17.512Z,67.40
2018-02-04T00:16:51.657Z,67.20
2018-02-04T00:19:19.147Z,67.20
2018-02-04T00:21:47.492Z,67.20
2018-02-04T00:24:15.747Z,67.30
2018-02-04T00:26:43.214Z,67.30
2018-02-04T00:29:10.701Z,67.30
2018-02-04T00:31:38.165Z,67.40
2018-02-04T00:34:05.647Z,67.40
2018-02-04T00:36:33.184Z,67.50
2018-02-04T00:39:00.693Z,67.50
2018-02-04T00:41:28.154Z,67.50
2018-02-04T00:43:55.648Z,67.50
2018-02-04T00:46:23.131Z,67.90
2018-02-04T00:48:50.615Z,67.60
2018-02-04T00:51:18.114Z,67.60
2018-02-04T00:53:45.610Z,67.70
2018-02-04T00:56:13.101Z,67.90
2018-02-04T00:58:41.345Z,67.90
2018-02-04T01:01:08.807Z,67.80
2018-02-04T01:03:36.301Z,67.90
2018-02-04T01:06:04.527Z,68.00
2018-02-04T01:08:32.009Z,68.00
2018-02-04T01:10:59.475Z,68.00
2018-02-04T01:13:27.750Z,68.00
2018-02-04T01:15:55.982Z,68.00
2018-02-04T01:18:23.450Z,68.00
2018-02-04T01:20:50.968Z,67.90
2018-02-04T01:23:20.300Z,67.90
2018-02-04T01:25:47.757Z,68.10
2018-02-04T01:28:15.245Z,68.20
2018-02-04T01:30:43.470Z,68.20
2018-02-04T01:33:16.922Z,68.20
2018-02-04T01:35:45.154Z,68.10
2018-02-04T01:38:12.651Z,68.10
2018-02-04T01:40:40.888Z,67.90
2018-02-04T01:43:08.385Z,67.90
2018-02-04T01:45:36.608Z,67.90
2018-02-04T01:48:07.591Z,68.00
2018-02-04T01:50:35.823Z,68.00
2018-02-04T01:53:03.307Z,68.00
2018-02-04T01:55:30.786Z,68.70
2018-02-04T01:57:59.021Z,68.00
2018-02-04T02:00:26.513Z,68.00
2018-02-04T02:02:54.737Z,68.10
2018-02-04T02:05:22.306Z,68.10
2018-02-04T02:07:49.765Z,68.20
2018-02-04T02:10:17.229Z,68.20
2018-02-04T02:12:44.719Z,68.30
2018-02-04T02:15:12.966Z,68.10
2018-02-04T02:17:40.430Z,68.10
2018-02-04T02:20:07.923Z,68.00
2018-02-04T02:22:35.384Z,68.10
2018-02-04T02:25:02.874Z,68.10
2018-02-04T02:27:30.326Z,68.20
2018-02-04T02:29:58.587Z,68.10
2018-02-04T02:32:26.046Z,68.10
2018-02-04T02:34:53.546Z,67.80
2018-02-04T02:37:21.783Z,67.70
2018-02-04T02:39:49.247Z,67.70
2018-02-04T02:42:16.738Z,67.80
2018-02-04T02:44:44.961Z,67.60
2018-02-04T02:47:12.500Z,67.60
2018-02-04T02:49:39.985Z,67.70
2018-02-04T02:52:07.502Z,67.60
2018-02-04T02:54:34.976Z,67.70
2018-02-04T02:57:02.433Z,67.60
2018-02-04T02:59:29.953Z,67.50
2018-02-04T03:01:58.185Z,67.50
2018-02-04T03:04:25.650Z,67.50
2018-02-04T03:06:53.136Z,67.50
2018-02-04T03:09:21.377Z,67.30
2018-02-04T03:11:48.881Z,67.40
2018-02-04T03:14:16.336Z,67.20
2018-02-04T03:16:43.800Z,67.20
2018-02-04T03:19:11.290Z,67.20
2018-02-04T03:21:38.791Z,67.20
2018-02-04T03:24:06.241Z,67.10
2018-02-04T03:26:34.510Z,66.90
2018-02-04T03:29:01.969Z,66.90
2018-02-04T03:31:29.456Z,66.90
2018-02-04T03:33:56.933Z,67.00
2018-02-04T03:36:24.442Z,67.10
2018-02-04T03:38:52.680Z,66.90
2018-02-04T03:41:20.142Z,66.90
2018-02-04T03:43:47.631Z,66.80
2018-02-04T03:46:15.855Z,66.80
2018-02-04T03:48:43.332Z,66.80
2018-02-04T03:51:10.801Z,66.70
2018-02-04T03:53:38.280Z,66.50
2018-02-04T03:56:06.512Z,66.30
2018-02-04T03:58:33.985Z,66.30
2018-02-04T04:01:01.478Z,66.30
2018-02-04T04:03:28.939Z,66.40
2018-02-04T04:05:56.404Z,66.40
2018-02-04T04:08:23.874Z,66.30
2018-02-04T04:10:51.352Z,66.30
2018-02-04T04:13:18.813Z,66.40
2018-02-04T04:15:46.300Z,66.40
2018-02-04T04:18:14.537Z,66.20
2018-02-04T04:20:42.001Z,66.20
2018-02-04T04:23:09.499Z,65.90
2018-02-04T04:25:36.950Z,65.80
2018-02-04T04:28:05.176Z,65.80
2018-02-04T04:30:32.678Z,65.80
2018-02-04T04:33:00.913Z,66.00
2018-02-04T04:35:28.379Z,65.90
2018-02-04T04:37:55.872Z,65.90
2018-02-04T04:40:23.367Z,65.90
2018-02-04T04:42:50.852Z,65.90
2018-02-04T04:45:18.346Z,65.70
2018-02-04T04:47:45.802Z,65.60
2018-02-04T04:50:13.289Z,65.60
2018-02-04T04:52:40.771Z,65.60
2018-02-04T04:55:08.258Z,65.50
2018-02-04T04:57:36.529Z,65.70
2018-02-04T05:00:04.751Z,65.80
2018-02-04T05:02:32.253Z,65.80
2018-02-04T05:05:00.522Z,66.20
2018-02-04T05:07:28.746Z,65.80
2018-02-04T05:09:56.203Z,65.70
2018-02-04T05:12:23.706Z,65.70
2018-02-04T05:14:51.162Z,65.60
2018-02-04T05:17:19.494Z,65.50
2018-02-04T05:19:46.991Z,65.50
2018-02-04T05:22:14.458Z,65.50
2018-02-04T05:24:42.694Z,65.80
2018-02-04T05:27:10.183Z,65.90
2018-02-04T05:29:38.409Z,66.10
2018-02-04T05:32:05.906Z,66.10
2018-02-04T05:34:34.163Z,66.10
2018-02-04T05:37:01.649Z,66.10
2018-02-04T05:39:29.870Z,66.20
2018-02-04T05:41:57.378Z,66.20
2018-02-04T05:44:24.825Z,66.40
2018-02-04T05:46:53.062Z,67.00
2018-02-04T05:49:20.552Z,66.70
2018-02-04T05:51:48.014Z,66.70
2018-02-04T05:54:15.500Z,66.80
2018-02-04T05:56:42.963Z,67.00
2018-02-04T05:59:10.440Z,67.10
2018-02-04T06:01:37.908Z,67.10
2018-02-04T06:04:06.168Z,67.30
2018-02-04T06:06:33.635Z,67.30
2018-02-04T06:09:01.129Z,67.40
2018-02-04T06:11:28.608Z,67.50
2018-02-04T06:13:56.079Z,67.50
2018-02-04T06:16:23.562Z,67.40
2018-02-04T06:18:51.030Z,67.40
2018-02-04T06:21:18.528Z,67.50
2018-02-04T06:23:46.750Z,67.70
2018-02-04T06:26:14.224Z,67.70
2018-02-04T06:28:41.705Z,68.30
2018-02-04T06:31:09.939Z,67.90
2018-02-04T06:33:37.422Z,67.80
2018-02-04T06:36:05.779Z,67.90
2018-02-04T06:38:33.253Z,67.90
2018-02-04T06:41:00.717Z,67.90
2018-02-04T06:43:28.970Z,68.10
2018-02-04T06:45:56.460Z,68.10
2018-02-04T06:48:24.729Z,67.80
2018-02-04T06:50:52.959Z,67.90
2018-02-04T06:53:20.416Z,67.80
2018-02-04T06:55:47.905Z,68.00
2018-02-04T06:58:16.132Z,68.20
2018-02-04T07:00:44.406Z,68.10
2018-02-04T07:03:11.869Z,68.10
2018-02-04T07:05:40.134Z,68.00
2018-02-04T07:08:07.596Z,68.00
2018-02-04T07:10:35.065Z,68.10
2018-02-04T07:13:02.660Z,68.30
2018-02-04T07:15:30.895Z,68.60
2018-02-04T07:17:58.374Z,68.60
2018-02-04T07:20:25.862Z,68.60
2018-02-04T07:22:53.331Z,68.70
2018-02-04T07:25:20.786Z,68.70
2018-02-04T07:27:48.353Z,68.90
2018-02-04T07:30:15.821Z,68.90
2018-02-04T07:32:43.284Z,69.00
2018-02-04T07:35:10.770Z,68.80
2018-02-04T07:37:38.238Z,68.80
2018-02-04T07:40:06.484Z,68.70
2018-02-04T07:42:34.107Z,68.70
2018-02-04T07:45:01.571Z,68.80
2018-02-04T07:47:29.039Z,68.90
2018-02-04T07:49:56.520Z,68.70
2018-02-04T07:52:23.982Z,68.80
2018-02-04T07:54:52.213Z,68.50
2018-02-04T07:57:19.709Z,68.40
2018-02-04T07:59:47.201Z,68.10
2018-02-04T08:02:14.670Z,68.40
2018-02-04T08:04:42.163Z,68.40
2018-02-04T08:07:09.648Z,68.50
2018-02-04T08:09:37.911Z,68.60
2018-02-04T08:12:05.395Z,68.60
2018-02-04T08:14:32.891Z,68.20
2018-02-04T08:17:00.365Z,67.90
2018-02-04T08:19:27.872Z,67.60
2018-02-04T08:21:56.084Z,67.30
2018-02-04T08:24:24.326Z,67.10
2018-02-04T08:26:51.794Z,67.10
2018-02-04T08:29:19.303Z,66.60
2018-02-04T08:31:47.548Z,66.00
2018-02-04T08:34:15.796Z,66.00
2018-02-04T08:36:43.305Z,66.10
2018-02-04T08:39:11.538Z,66.50
2018-02-04T08:41:39.774Z,66.40
2018-02-04T08:44:07.263Z,66.40
2018-02-04T08:46:34.760Z,66.30
2018-02-04T08:49:02.235Z,66.30
2018-02-04T08:51:30.490Z,65.90
2018-02-04T08:53:57.979Z,65.90
2018-02-04T08:56:25.433Z,65.90
2018-02-04T08:58:52.939Z,65.80
2018-02-04T09:01:20.402Z,65.60
2018-02-04T09:03:47.874Z,64.90
2018-02-04T09:06:16.125Z,63.90
2018-02-04T09:08:43.590Z,63.90
2018-02-04T09:11:11.100Z,63.90
2018-02-04T09:13:38.555Z,64.30
2018-02-04T09:16:06.040Z,63.70
2018-02-04T09:18:33.505Z,61.60
2018-02-04T09:21:00.996Z,62.50
2018-02-04T09:23:29.230Z,63.90
2018-02-04T09:25:56.731Z,63.80
2018-02-04T09:28:24.987Z,63.20
2018-02-04T09:30:52.510Z,63.20
2018-02-04T09:33:19.970Z,61.40
2018-02-04T09:35:47.467Z,61.20
2018-02-04T09:47:23.538Z,61.20
2018-02-04T09:49:51.146Z,61.50
2018-02-04T09:52:18.654Z,61.30
2018-02-04T09:54:46.117Z,61.30
2018-02-04T10:00:39.604Z,60.50
2018-02-04T10:03:07.859Z,60.40
2018-02-04T10:05:35.316Z,60.40
2018-02-04T10:08:02.836Z,60.50
2018-02-04T10:10:30.294Z,61.20
2018-02-04T10:12:57.818Z,58.60
2018-02-04T10:15:25.286Z,56.80
2018-02-04T10:17:52.761Z,56.70
2018-02-04T10:20:21.024Z,56.70
2018-02-04T10:22:48.496Z,56.70
2018-02-04T10:25:16.762Z,55.00
2018-02-04T10:27:44.222Z,55.00
2018-02-04T10:30:11.692Z,54.70
2018-02-04T10:32:39.183Z,55.30
2018-02-04T10:35:06.645Z,55.20
2018-02-04T10:37:34.857Z,56.10
2018-02-04T10:40:02.419Z,55.50
2018-02-04T10:42:29.894Z,55.30
2018-02-04T10:44:57.379Z,55.80
2018-02-04T10:47:25.621Z,55.70
2018-02-04T10:49:53.182Z,55.70
2018-02-04T10:52:20.781Z,55.50
2018-02-04T10:54:49.028Z,54.60
2018-02-04T10:57:16.534Z,54.60
2018-02-04T10:59:43.989Z,53.90
2018-02-04T11:02:11.454Z,54.10
2018-02-04T11:04:38.942Z,54.00
2018-02-04T11:07:06.407Z,53.50
2018-02-04T11:09:33.896Z,52.20
2018-02-04T11:12:02.193Z,52.00
2018-02-04T11:14:29.663Z,52.00
2018-02-04T11:16:57.121Z,52.50
2018-02-04T11:19:24.626Z,51.30
2018-02-04T11:21:52.083Z,50.30
2018-02-04T11:24:20.342Z,50.20
2018-02-04T11:26:47.818Z,50.10
2018-02-04T11:29:16.043Z,51.70
2018-02-04T11:31:43.542Z,51.70
2018-02-04T11:34:11.010Z,52.00
2018-02-04T11:36:39.268Z,52.40
2018-02-04T11:39:06.750Z,52.40
2018-02-04T11:41:34.211Z,52.70
2018-02-04T11:44:01.714Z,52.20
2018-02-04T11:46:29.206Z,51.30
2018-02-04T11:48:57.422Z,50.60
2018-02-04T11:51:24.916Z,50.60
2018-02-04T11:53:52.386Z,50.60
2018-02-04T11:56:20.636Z,51.20
2018-02-04T11:58:48.103Z,51.20
2018-02-04T12:01:15.678Z,51.50
2018-02-04T12:03:43.906Z,51.50
2018-02-04T12:06:11.398Z,51.50
2018-02-04T12:08:39.624Z,51.40
2018-02-04T12:11:08.120Z,51.30
2018-02-04T12:13:35.658Z,50.80
2018-02-04T12:16:03.141Z,51.20
2018-02-04T12:18:30.603Z,51.70
2018-02-04T12:20:58.091Z,51.90
2018-02-04T12:23:26.330Z,52.30
2018-02-04T12:25:53.794Z,52.30
2018-02-04T12:28:21.289Z,52.10
2018-02-04T12:30:48.782Z,51.70
2018-02-04T12:33:16.251Z,51.80
2018-02-04T12:35:44.506Z,51.70
2018-02-04T12:38:11.965Z,51.70
2018-02-04T12:40:40.210Z,52.30
2018-02-04T12:43:07.695Z,52.30
2018-02-04T12:45:35.257Z,52.50
2018-02-04T12:48:02.738Z,52.90
2018-02-04T12:50:30.193Z,52.50
2018-02-04T12:52:57.690Z,52.20
2018-02-04T12:55:25.151Z,52.60
2018-02-04T12:57:52.646Z,52.10
2018-02-04T13:00:20.139Z,51.80
2018-02-04T13:02:48.366Z,52.80
2018-02-04T13:05:15.862Z,52.30
2018-02-04T13:07:43.323Z,51.90
2018-02-04T13:10:11.558Z,52.90
2018-02-04T13:12:39.075Z,52.40
2018-02-04T13:15:06.539Z,52.40
2018-02-04T13:20:33.033Z,52.40
2018-02-04T13:23:00.533Z,52.30
2018-02-04T13:25:27.993Z,51.90
2018-02-04T13:27:55.489Z,51.60
2018-02-04T13:30:23.703Z,52.10
2018-02-04T13:32:51.661Z,52.10
2018-02-04T13:35:19.162Z,51.90
2018-02-04T13:37:46.692Z,52.10
2018-02-04T13:40:14.176Z,52.10
2018-02-04T13:42:41.651Z,50.70
2018-02-04T13:45:09.894Z,49.70
2018-02-04T13:47:37.444Z,49.60
2018-02-04T13:50:04.920Z,50.10
2018-02-04T13:52:32.439Z,50.80
2018-02-04T13:54:59.941Z,50.80
2018-02-04T13:57:28.157Z,51.40
2018-02-04T13:59:55.617Z,51.00
2018-02-04T14:02:23.119Z,50.70
2018-02-04T14:04:50.578Z,50.90
2018-02-04T14:07:18.034Z,51.60
2018-02-04T14:09:46.282Z,50.60
2018-02-04T14:12:13.762Z,50.60
2018-02-04T14:14:41.215Z,49.50
2018-02-04T14:17:08.698Z,48.30
2018-02-04T14:19:37.854Z,49.20
2018-02-04T14:22:05.309Z,48.70
2018-02-04T14:24:32.794Z,47.70
2018-02-04T14:27:01.039Z,46.50
2018-02-04T14:29:28.511Z,46.50
2018-02-04T14:31:56.754Z,48.50
2018-02-04T14:34:24.241Z,48.50
2018-02-04T14:36:52.681Z,48.20
2018-02-04T14:39:20.258Z,48.20
2018-02-04T14:41:47.863Z,48.50
2018-02-04T14:44:16.547Z,48.40
2018-02-04T14:46:44.161Z,48.40
2018-02-04T14:49:11.673Z,48.20
2018-02-04T14:51:39.132Z,48.50
2018-02-04T14:54:06.662Z,47.50
2018-02-04T14:56:36.349Z,46.90
2018-02-04T14:59:04.107Z,46.90
2018-02-04T15:01:31.577Z,47.50
2018-02-04T15:03:59.849Z,47.10
2018-02-04T15:06:27.301Z,47.00
2018-02-04T15:08:54.768Z,47.20
2018-02-04T15:11:23.042Z,47.90
2018-02-04T15:13:50.524Z,47.90
2018-02-04T15:16:17.996Z,48.10
2018-02-04T15:18:45.500Z,48.40
2018-02-04T15:21:12.960Z,48.50
2018-02-04T15:23:40.432Z,47.80
2018-02-04T15:26:08.678Z,48.30
2018-02-04T15:28:36.137Z,48.30
2018-02-04T15:31:03.622Z,48.10
2018-02-04T15:33:31.882Z,48.60
2018-02-04T15:36:00.156Z,49.30
2018-02-04T15:38:27.601Z,48.70
2018-02-04T15:40:55.130Z,48.90
2018-02-04T15:43:22.573Z,48.90
2018-02-04T15:45:50.070Z,48.50
2018-02-04T15:48:17.525Z,48.40
2018-02-04T15:50:44.981Z,48.60
2018-02-04T15:53:12.453Z,48.70
2018-02-04T15:55:40.672Z,50.20
2018-02-04T15:58:08.169Z,50.20
2018-02-04T16:00:35.626Z,50.80
2018-02-04T16:03:03.157Z,50.90
2018-02-04T16:05:31.328Z,53.40
2018-02-04T16:07:58.821Z,53.40
2018-02-04T16:10:26.276Z,54.30
2018-02-04T16:12:54.550Z,56.00
2018-02-04T16:15:22.772Z,56.80
2018-02-04T16:17:50.261Z,56.50
2018-02-04T16:20:17.736Z,57.00
2018-02-04T16:22:45.209Z,57.30
2018-02-04T16:25:12.714Z,57.80
2018-02-04T16:27:40.203Z,58.20
2018-02-04T16:30:08.450Z,58.90
2018-02-04T16:32:35.934Z,58.80
2018-02-04T16:35:04.169Z,59.40
2018-02-04T16:37:31.660Z,59.40
2018-02-04T16:39:59.938Z,59.80
2018-02-04T16:42:28.271Z,60.10
2018-02-04T16:44:55.725Z,60.00
2018-02-04T16:47:23.215Z,60.40
2018-02-04T16:49:50.707Z,60.30
2018-02-04T16:52:18.214Z,60.50
2018-02-04T16:54:45.776Z,60.80
2018-02-04T16:57:13.224Z,60.90
2018-02-04T16:59:40.801Z,61.10
2018-02-04T17:02:08.296Z,61.50
2018-02-04T17:04:35.773Z,61.70
2018-02-04T17:07:03.290Z,62.00
2018-02-04T17:09:31.968Z,62.50
2018-02-04T17:12:00.201Z,62.50
2018-02-04T17:14:27.698Z,62.50
2018-02-04T17:16:55.936Z,62.70
2018-02-04T17:19:23.602Z,62.70
2018-02-04T17:21:51.197Z,62.80
2018-02-04T17:24:19.424Z,63.00
2018-02-04T17:26:46.973Z,62.90
2018-02-04T17:29:14.438Z,62.90
2018-02-04T17:31:42.003Z,63.30
2018-02-04T17:34:09.468Z,63.40
2018-02-04T17:36:36.988Z,63.40
2018-02-04T17:39:04.465Z,63.30
2018-02-04T17:41:31.961Z,63.50
2018-02-04T17:44:00.196Z,63.90
2018-02-04T17:46:27.677Z,63.90
2018-02-04T17:48:55.250Z,63.90
2018-02-04T17:51:23.546Z,64.70
2018-02-04T17:53:51.058Z,64.70
2018-02-04T17:56:18.664Z,65.00
2018-02-04T17:58:46.196Z,65.00
2018-02-04T18:01:13.621Z,65.30
2018-02-04T18:03:41.111Z,65.60
2018-02-04T18:06:09.362Z,65.70
2018-02-04T18:08:36.862Z,65.60
2018-02-04T18:11:05.101Z,65.20
2018-02-04T18:13:32.568Z,65.20
2018-02-04T18:16:00.829Z,65.40
2018-02-04T18:18:28.313Z,64.80
2018-02-04T18:20:56.546Z,64.60
2018-02-04T18:23:24.045Z,64.60
2018-02-04T18:25:52.319Z,64.50
2018-02-04T18:28:20.541Z,64.60
2018-02-04T18:30:48.037Z,64.50
2018-02-04T18:33:16.262Z,64.50
2018-02-04T18:35:43.754Z,64.50
2018-02-04T18:38:11.216Z,64.70
2018-02-04T18:40:39.575Z,65.40
2018-02-04T18:43:07.084Z,65.30
2018-02-04T18:45:34.600Z,65.10
2018-02-04T18:48:02.077Z,66.00
2018-02-04T18:50:30.344Z,65.60
2018-02-04T18:52:57.825Z,65.50
2018-02-04T18:55:25.354Z,65.60
2018-02-04T18:57:52.969Z,65.70
2018-02-04T19:00:20.635Z,65.60
2018-02-04T19:02:48.348Z,65.60
2018-02-04T19:05:16.419Z,65.90
2018-02-04T19:07:44.167Z,66.10
2018-02-04T19:10:11.634Z,66.30
2018-02-04T19:12:39.963Z,66.00
2018-02-04T19:15:07.458Z,66.00
2018-02-04T19:17:35.002Z,66.20
2018-02-04T19:20:02.670Z,66.30
2018-02-04T19:22:31.080Z,66.30
2018-02-04T19:24:59.488Z,66.20
2018-02-04T19:27:27.297Z,66.30
2018-02-04T19:29:55.025Z,66.20
2018-02-04T19:32:22.719Z,66.20
2018-02-04T19:34:54.455Z,66.30
2018-02-04T19:37:21.982Z,66.20
2018-02-04T19:39:49.462Z,66.40
2018-02-04T19:42:17.222Z,66.40
2018-02-04T19:44:44.959Z,66.20
2018-02-04T19:47:12.674Z,66.20
2018-02-04T19:49:41.386Z,66.60
2018-02-04T19:52:09.003Z,66.70
2018-02-04T19:54:37.445Z,67.00
2018-02-04T19:57:05.161Z,66.90
2018-02-04T19:59:33.670Z,67.30
2018-02-04T20:02:01.337Z,67.30
2018-02-04T20:04:28.981Z,67.50
2018-02-04T20:06:57.619Z,67.40
2018-02-04T20:09:26.014Z,67.20
2018-02-04T20:11:54.527Z,67.10
2018-02-04T20:14:22.452Z,67.00
2018-02-04T20:16:50.086Z,67.00
2018-02-04T20:19:17.825Z,67.00
2018-02-04T20:21:45.310Z,67.10
2018-02-04T20:24:13.553Z,67.10
2018-02-04T20:26:41.249Z,67.00
2018-02-04T20:29:08.764Z,66.90
2018-02-04T20:31:36.311Z,66.60
2018-02-04T20:34:16.536Z,66.80
2018-02-04T20:36:44.866Z,66.80
2018-02-04T20:39:12.375Z,67.00
2018-02-04T20:41:39.857Z,67.10
2018-02-04T20:44:08.086Z,67.20
2018-02-04T20:46:35.583Z,67.20
2018-02-04T20:49:03.234Z,67.20
2018-02-04T20:51:30.817Z,67.00
2018-02-04T20:53:58.301Z,66.90
2018-02-04T20:56:25.807Z,66.90
2018-02-04T20:58:54.117Z,66.80
2018-02-04T21:01:21.622Z,66.80
2018-02-04T21:03:49.607Z,66.80
2018-02-04T21:06:17.434Z,66.50
2018-02-04T21:08:44.953Z,66.40
2018-02-04T21:11:12.500Z,66.40
2018-02-04T21:13:40.724Z,66.40
2018-02-04T21:16:08.216Z,66.40
2018-02-04T21:18:36.609Z,66.60
2018-02-04T21:21:05.122Z,66.60
2018-02-04T21:23:32.627Z,66.80
2018-02-04T21:26:00.249Z,66.90
2018-02-04T21:28:27.705Z,66.90
2018-02-04T21:30:55.203Z,66.80
2018-02-04T21:33:23.573Z,66.70
2018-02-04T21:35:51.094Z,66.50
2018-02-04T21:38:18.566Z,66.90
2018-02-04T21:40:46.133Z,66.80
2018-02-04T21:43:13.612Z,66.80
2018-02-04T21:45:41.875Z,66.90
2018-02-04T21:48:09.363Z,66.90
2018-02-04T21:50:36.965Z,67.20
2018-02-04T21:53:04.703Z,67.40
2018-02-04T21:55:32.174Z,67.20
2018-02-04T21:57:59.650Z,66.80
2018-02-04T22:00:27.158Z,66.70
2018-02-04T22:02:54.650Z,66.70
2018-02-04T22:05:22.130Z,66.60
2018-02-04T22:07:49.585Z,66.60
2018-02-04T22:10:17.040Z,66.60
2018-02-04T22:12:44.525Z,66.60
2018-02-04T22:15:12.061Z,66.50
2018-02-04T22:17:39.557Z,66.30
2018-02-04T22:20:07.090Z,66.20
2018-02-04T22:22:34.589Z,66.20
2018-02-04T22:25:02.050Z,66.10
2018-02-04T22:27:30.316Z,65.70
2018-02-04T22:29:57.789Z,65.70
2018-02-04T22:32:25.256Z,65.80
2018-02-04T22:34:52.739Z,65.90
2018-02-04T22:37:21.041Z,65.80
2018-02-04T22:39:48.782Z,65.80
2018-02-04T22:42:16.221Z,65.70
2018-02-04T22:44:43.729Z,65.30
2018-02-04T22:47:11.233Z,65.60
2018-02-04T22:49:38.699Z,65.60
2018-02-04T22:52:06.917Z,65.50
2018-02-04T22:54:34.381Z,65.50
2018-02-04T22:57:01.848Z,65.30
2018-02-04T22:59:29.314Z,65.30
2018-02-04T23:01:56.800Z,65.60
2018-02-04T23:04:25.025Z,66.30
2018-02-04T23:06:52.530Z,66.30
2018-02-04T23:09:20.753Z,66.40
2018-02-04T23:11:48.221Z,66.40
2018-02-04T23:14:15.701Z,66.30
2018-02-04T23:16:43.187Z,65.90
2018-02-04T23:19:10.665Z,65.70
2018-02-04T23:21:38.138Z,65.60
2018-02-04T23:24:06.398Z,66.50
2018-02-04T23:26:33.957Z,66.50
2018-02-04T23:29:01.418Z,66.50
2018-02-04T23:31:28.932Z,66.40
2018-02-04T23:33:57.163Z,66.30
2018-02-04T23:36:24.638Z,66.30
2018-02-04T23:38:53.097Z,66.10
2018-02-04T23:41:20.616Z,66.50
2018-02-04T23:43:48.102Z,65.80
2018-02-04T23:46:15.575Z,65.70
2018-02-04T23:48:43.057Z,65.60
2018-02-04T23:51:11.285Z,65.30
2018-02-04T23:53:38.754Z,65.30
2018-02-04T23:56:06.229Z,65.00
2018-02-04T23:58:33.714Z,64.90
